sensor_id;sensor_type;location;lat;lon;timestamp;P1;durP1;ratioP1;P2;durP2;ratioP2
19347;SDS011;9810;52.480;9.806;2022-10-16T00:01:16;1.73;;;1.23;;
19347;SDS011;9810;52.480;9.806;2022-10-16T00:03:45;1.83;;;0.80;;
19347;SDS011;9810;52.480;9.806;2022-10-16T00:06:13;1.93;;;1.00;;
19347;SDS011;9810;52.480;9.806;2022-10-16T00:08:42;3.80;;;1.00;;
19347;SDS011;9810;52.480;9.806;2022-10-16T00:11:12;7.70;;;0.90;;
19347;SDS011;9810;52.480;9.806;2022-10-16T00:13:42;1.67;;;0.77;;
19347;SDS011;9810;52.480;9.806;2022-10-16T00:16:11;1.50;;;0.60;;
19347;SDS011;9810;52.480;9.806;2022-10-16T00:18:39;2.87;;;0.60;;
19347;SDS011;9810;52.480;9.806;2022-10-16T00:21:09;1.63;;;1.13;;
19347;SDS011;9810;52.480;9.806;2022-10-16T00:23:37;0.90;;;0.80;;
19347;SDS011;9810;52.480;9.806;2022-10-16T00:26:05;7.67;;;0.97;;
19347;SDS011;9810;52.480;9.806;2022-10-16T00:28:35;4.73;;;1.27;;
19347;SDS011;9810;52.480;9.806;2022-10-16T00:31:03;2.23;;;0.60;;
19347;SDS011;9810;52.480;9.806;2022-10-16T00:33:30;3.13;;;0.60;;
19347;SDS011;9810;52.480;9.806;2022-10-16T00:35:57;3.00;;;0.57;;
19347;SDS011;9810;52.480;9.806;2022-10-16T00:38:25;1.87;;;0.70;;
19347;SDS011;9810;52.480;9.806;2022-10-16T00:40:52;0.73;;;0.40;;
19347;SDS011;9810;52.480;9.806;2022-10-16T00:43:33;1.40;;;0.67;;
19347;SDS011;9810;52.480;9.806;2022-10-16T00:46:10;2.47;;;0.40;;
19347;SDS011;9810;52.480;9.806;2022-10-16T00:48:40;1.03;;;0.57;;
19347;SDS011;9810;52.480;9.806;2022-10-16T00:51:09;1.40;;;0.60;;
19347;SDS011;9810;52.480;9.806;2022-10-16T00:53:36;1.67;;;1.17;;
19347;SDS011;9810;52.480;9.806;2022-10-16T00:56:03;0.70;;;0.50;;
19347;SDS011;9810;52.480;9.806;2022-10-16T00:58:31;0.63;;;0.53;;
19347;SDS011;9810;52.480;9.806;2022-10-16T01:01:00;0.73;;;0.50;;
19347;SDS011;9810;52.480;9.806;2022-10-16T01:03:28;3.30;;;0.53;;
19347;SDS011;9810;52.480;9.806;2022-10-16T01:06:01;2.00;;;0.60;;
19347;SDS011;9810;52.480;9.806;2022-10-16T01:08:43;0.63;;;0.63;;
19347;SDS011;9810;52.480;9.806;2022-10-16T01:11:17;0.50;;;0.50;;
19347;SDS011;9810;52.480;9.806;2022-10-16T01:13:49;2.13;;;0.77;;
19347;SDS011;9810;52.480;9.806;2022-10-16T01:16:28;2.03;;;0.70;;
19347;SDS011;9810;52.480;9.806;2022-10-16T01:19:00;4.67;;;0.80;;
19347;SDS011;9810;52.480;9.806;2022-10-16T01:21:36;0.57;;;0.50;;
19347;SDS011;9810;52.480;9.806;2022-10-16T01:24:08;1.93;;;1.07;;
19347;SDS011;9810;52.480;9.806;2022-10-16T01:26:49;2.40;;;0.73;;
19347;SDS011;9810;52.480;9.806;2022-10-16T01:29:29;0.70;;;0.67;;
19347;SDS011;9810;52.480;9.806;2022-10-16T01:32:05;2.17;;;0.60;;
19347;SDS011;9810;52.480;9.806;2022-10-16T01:34:42;0.60;;;0.57;;
19347;SDS011;9810;52.480;9.806;2022-10-16T01:37:15;3.37;;;0.60;;
19347;SDS011;9810;52.480;9.806;2022-10-16T01:39:48;2.23;;;0.70;;
19347;SDS011;9810;52.480;9.806;2022-10-16T01:42:21;2.27;;;0.63;;
19347;SDS011;9810;52.480;9.806;2022-10-16T01:44:52;2.00;;;0.80;;
19347;SDS011;9810;52.480;9.806;2022-10-16T01:47:22;3.00;;;0.80;;
19347;SDS011;9810;52.480;9.806;2022-10-16T01:49:51;1.27;;;0.90;;
19347;SDS011;9810;52.480;9.806;2022-10-16T01:52:21;3.40;;;1.20;;
19347;SDS011;9810;52.480;9.806;2022-10-16T01:54:52;2.37;;;0.93;;
19347;SDS011;9810;52.480;9.806;2022-10-16T01:57:23;1.40;;;0.80;;
19347;SDS011;9810;52.480;9.806;2022-10-16T01:59:52;1.17;;;0.97;;
19347;SDS011;9810;52.480;9.806;2022-10-16T02:02:21;4.47;;;1.07;;
19347;SDS011;9810;52.480;9.806;2022-10-16T02:04:53;4.00;;;0.90;;
19347;SDS011;9810;52.480;9.806;2022-10-16T02:07:24;3.03;;;1.00;;
19347;SDS011;9810;52.480;9.806;2022-10-16T02:09:52;1.90;;;1.00;;
19347;SDS011;9810;52.480;9.806;2022-10-16T02:12:21;4.23;;;1.43;;
19347;SDS011;9810;52.480;9.806;2022-10-16T02:14:53;2.57;;;1.30;;
19347;SDS011;9810;52.480;9.806;2022-10-16T02:17:21;3.00;;;1.30;;
19347;SDS011;9810;52.480;9.806;2022-10-16T02:19:48;2.73;;;1.17;;
19347;SDS011;9810;52.480;9.806;2022-10-16T02:22:18;1.43;;;0.90;;
19347;SDS011;9810;52.480;9.806;2022-10-16T02:24:50;4.73;;;1.20;;
19347;SDS011;9810;52.480;9.806;2022-10-16T02:27:23;4.50;;;1.17;;
19347;SDS011;9810;52.480;9.806;2022-10-16T02:29:58;2.60;;;1.43;;
19347;SDS011;9810;52.480;9.806;2022-10-16T02:32:33;3.10;;;1.43;;
19347;SDS011;9810;52.480;9.806;2022-10-16T02:35:02;3.80;;;1.10;;
19347;SDS011;9810;52.480;9.806;2022-10-16T02:37:31;2.10;;;1.43;;
19347;SDS011;9810;52.480;9.806;2022-10-16T02:39:59;2.43;;;0.90;;
19347;SDS011;9810;52.480;9.806;2022-10-16T02:42:29;2.80;;;1.20;;
19347;SDS011;9810;52.480;9.806;2022-10-16T02:45:00;1.47;;;1.17;;
19347;SDS011;9810;52.480;9.806;2022-10-16T02:47:28;5.13;;;1.50;;
19347;SDS011;9810;52.480;9.806;2022-10-16T02:49:56;5.43;;;1.20;;
19347;SDS011;9810;52.480;9.806;2022-10-16T02:52:23;3.20;;;1.07;;
19347;SDS011;9810;52.480;9.806;2022-10-16T02:54:50;4.30;;;1.50;;
19347;SDS011;9810;52.480;9.806;2022-10-16T02:57:17;1.30;;;1.13;;
19347;SDS011;9810;52.480;9.806;2022-10-16T02:59:46;4.30;;;1.33;;
19347;SDS011;9810;52.480;9.806;2022-10-16T03:02:13;11.83;;;1.43;;
19347;SDS011;9810;52.480;9.806;2022-10-16T03:04:40;3.03;;;1.03;;
19347;SDS011;9810;52.480;9.806;2022-10-16T03:07:07;2.93;;;1.10;;
19347;SDS011;9810;52.480;9.806;2022-10-16T03:09:34;2.63;;;1.50;;
19347;SDS011;9810;52.480;9.806;2022-10-16T03:12:01;2.03;;;1.30;;
19347;SDS011;9810;52.480;9.806;2022-10-16T03:14:29;2.40;;;1.20;;
19347;SDS011;9810;52.480;9.806;2022-10-16T03:16:58;4.70;;;1.07;;
19347;SDS011;9810;52.480;9.806;2022-10-16T03:19:25;1.40;;;0.83;;
19347;SDS011;9810;52.480;9.806;2022-10-16T03:21:52;1.37;;;1.00;;
19347;SDS011;9810;52.480;9.806;2022-10-16T03:24:19;5.07;;;1.17;;
19347;SDS011;9810;52.480;9.806;2022-10-16T03:26:46;3.90;;;1.20;;
19347;SDS011;9810;52.480;9.806;2022-10-16T03:29:13;2.90;;;1.33;;
19347;SDS011;9810;52.480;9.806;2022-10-16T03:31:39;2.97;;;1.13;;
19347;SDS011;9810;52.480;9.806;2022-10-16T03:34:08;4.28;;;1.42;;
19347;SDS011;9810;52.480;9.806;2022-10-16T03:36:35;5.77;;;1.70;;
19347;SDS011;9810;52.480;9.806;2022-10-16T03:39:02;3.10;;;1.30;;
19347;SDS011;9810;52.480;9.806;2022-10-16T03:41:29;4.43;;;1.30;;
19347;SDS011;9810;52.480;9.806;2022-10-16T03:43:56;6.67;;;1.43;;
19347;SDS011;9810;52.480;9.806;2022-10-16T03:46:23;5.57;;;1.30;;
19347;SDS011;9810;52.480;9.806;2022-10-16T03:48:50;2.53;;;1.20;;
19347;SDS011;9810;52.480;9.806;2022-10-16T03:51:19;4.47;;;1.90;;
19347;SDS011;9810;52.480;9.806;2022-10-16T03:53:46;5.53;;;1.30;;
19347;SDS011;9810;52.480;9.806;2022-10-16T03:56:13;3.10;;;1.40;;
19347;SDS011;9810;52.480;9.806;2022-10-16T03:58:40;4.23;;;1.50;;
19347;SDS011;9810;52.480;9.806;2022-10-16T04:01:07;6.00;;;2.13;;
19347;SDS011;9810;52.480;9.806;2022-10-16T04:03:35;3.60;;;1.90;;
19347;SDS011;9810;52.480;9.806;2022-10-16T04:06:01;4.57;;;1.63;;
19347;SDS011;9810;52.480;9.806;2022-10-16T04:08:30;3.67;;;1.60;;
19347;SDS011;9810;52.480;9.806;2022-10-16T04:10:59;1.53;;;1.23;;
19347;SDS011;9810;52.480;9.806;2022-10-16T04:13:26;3.53;;;1.60;;
19347;SDS011;9810;52.480;9.806;2022-10-16T04:15:54;3.57;;;1.70;;
19347;SDS011;9810;52.480;9.806;2022-10-16T04:18:21;1.50;;;1.40;;
19347;SDS011;9810;52.480;9.806;2022-10-16T04:20:48;3.37;;;1.40;;
19347;SDS011;9810;52.480;9.806;2022-10-16T04:23:15;5.73;;;1.50;;
19347;SDS011;9810;52.480;9.806;2022-10-16T04:25:43;2.50;;;1.60;;
19347;SDS011;9810;52.480;9.806;2022-10-16T04:28:11;2.50;;;2.00;;
19347;SDS011;9810;52.480;9.806;2022-10-16T04:30:38;3.47;;;1.93;;
19347;SDS011;9810;52.480;9.806;2022-10-16T04:33:07;2.93;;;1.80;;
19347;SDS011;9810;52.480;9.806;2022-10-16T04:35:35;9.80;;;1.93;;
19347;SDS011;9810;52.480;9.806;2022-10-16T04:38:03;2.70;;;1.80;;
19347;SDS011;9810;52.480;9.806;2022-10-16T04:40:29;3.50;;;1.67;;
19347;SDS011;9810;52.480;9.806;2022-10-16T04:42:59;3.87;;;1.77;;
19347;SDS011;9810;52.480;9.806;2022-10-16T04:45:26;3.13;;;1.70;;
19347;SDS011;9810;52.480;9.806;2022-10-16T04:47:56;6.93;;;2.20;;
19347;SDS011;9810;52.480;9.806;2022-10-16T04:50:23;3.13;;;1.60;;
19347;SDS011;9810;52.480;9.806;2022-10-16T04:52:50;5.27;;;2.00;;
19347;SDS011;9810;52.480;9.806;2022-10-16T04:55:18;2.87;;;1.83;;
19347;SDS011;9810;52.480;9.806;2022-10-16T04:57:45;7.57;;;2.80;;
19347;SDS011;9810;52.480;9.806;2022-10-16T05:00:14;3.47;;;2.00;;
19347;SDS011;9810;52.480;9.806;2022-10-16T05:02:41;4.03;;;2.30;;
19347;SDS011;9810;52.480;9.806;2022-10-16T05:05:08;4.70;;;2.00;;
19347;SDS011;9810;52.480;9.806;2022-10-16T05:07:36;5.80;;;2.13;;
19347;SDS011;9810;52.480;9.806;2022-10-16T05:10:04;2.53;;;2.00;;
19347;SDS011;9810;52.480;9.806;2022-10-16T05:12:32;6.53;;;2.00;;
19347;SDS011;9810;52.480;9.806;2022-10-16T05:14:59;3.37;;;2.37;;
19347;SDS011;9810;52.480;9.806;2022-10-16T05:17:28;10.00;;;2.37;;
19347;SDS011;9810;52.480;9.806;2022-10-16T05:19:55;4.87;;;2.33;;
19347;SDS011;9810;52.480;9.806;2022-10-16T05:22:22;3.47;;;2.43;;
19347;SDS011;9810;52.480;9.806;2022-10-16T05:24:50;6.73;;;2.83;;
19347;SDS011;9810;52.480;9.806;2022-10-16T05:27:17;7.63;;;2.43;;
19347;SDS011;9810;52.480;9.806;2022-10-16T05:29:45;6.53;;;2.43;;
19347;SDS011;9810;52.480;9.806;2022-10-16T05:32:13;5.57;;;2.80;;
19347;SDS011;9810;52.480;9.806;2022-10-16T05:34:43;10.27;;;2.50;;
19347;SDS011;9810;52.480;9.806;2022-10-16T05:37:10;3.57;;;1.90;;
19347;SDS011;9810;52.480;9.806;2022-10-16T05:39:38;3.20;;;2.20;;
19347;SDS011;9810;52.480;9.806;2022-10-16T05:42:05;5.83;;;2.30;;
19347;SDS011;9810;52.480;9.806;2022-10-16T05:44:32;5.27;;;2.10;;
19347;SDS011;9810;52.480;9.806;2022-10-16T05:47:00;3.63;;;2.27;;
19347;SDS011;9810;52.480;9.806;2022-10-16T05:49:27;6.53;;;2.67;;
19347;SDS011;9810;52.480;9.806;2022-10-16T05:51:55;3.70;;;1.97;;
19347;SDS011;9810;52.480;9.806;2022-10-16T05:54:23;6.03;;;2.70;;
19347;SDS011;9810;52.480;9.806;2022-10-16T05:56:50;3.33;;;2.20;;
19347;SDS011;9810;52.480;9.806;2022-10-16T05:59:17;3.60;;;2.13;;
19347;SDS011;9810;52.480;9.806;2022-10-16T06:01:44;2.33;;;2.13;;
19347;SDS011;9810;52.480;9.806;2022-10-16T06:04:11;8.23;;;2.70;;
19347;SDS011;9810;52.480;9.806;2022-10-16T06:06:39;7.93;;;2.57;;
19347;SDS011;9810;52.480;9.806;2022-10-16T06:09:08;3.10;;;2.27;;
19347;SDS011;9810;52.480;9.806;2022-10-16T06:11:36;4.00;;;1.97;;
19347;SDS011;9810;52.480;9.806;2022-10-16T06:14:03;5.03;;;2.60;;
19347;SDS011;9810;52.480;9.806;2022-10-16T06:16:32;4.20;;;2.30;;
19347;SDS011;9810;52.480;9.806;2022-10-16T06:18:59;7.13;;;2.50;;
19347;SDS011;9810;52.480;9.806;2022-10-16T06:21:27;3.97;;;2.60;;
19347;SDS011;9810;52.480;9.806;2022-10-16T06:23:55;8.93;;;2.27;;
19347;SDS011;9810;52.480;9.806;2022-10-16T06:26:25;4.97;;;2.40;;
19347;SDS011;9810;52.480;9.806;2022-10-16T06:28:53;4.17;;;2.17;;
19347;SDS011;9810;52.480;9.806;2022-10-16T06:31:21;7.20;;;2.33;;
19347;SDS011;9810;52.480;9.806;2022-10-16T06:33:52;2.50;;;2.30;;
19347;SDS011;9810;52.480;9.806;2022-10-16T06:36:21;2.40;;;2.20;;
19347;SDS011;9810;52.480;9.806;2022-10-16T06:38:48;4.63;;;2.80;;
19347;SDS011;9810;52.480;9.806;2022-10-16T06:41:16;3.90;;;2.03;;
19347;SDS011;9810;52.480;9.806;2022-10-16T06:43:46;2.47;;;2.10;;
19347;SDS011;9810;52.480;9.806;2022-10-16T06:46:14;5.03;;;2.47;;
19347;SDS011;9810;52.480;9.806;2022-10-16T06:48:43;2.60;;;2.07;;
19347;SDS011;9810;52.480;9.806;2022-10-16T06:51:11;6.13;;;2.03;;
19347;SDS011;9810;52.480;9.806;2022-10-16T06:53:39;1.77;;;1.57;;
19347;SDS011;9810;52.480;9.806;2022-10-16T06:56:08;1.80;;;1.70;;
19347;SDS011;9810;52.480;9.806;2022-10-16T06:58:36;1.67;;;1.53;;
19347;SDS011;9810;52.480;9.806;2022-10-16T07:01:05;2.30;;;1.57;;
19347;SDS011;9810;52.480;9.806;2022-10-16T07:03:33;1.90;;;1.70;;
19347;SDS011;9810;52.480;9.806;2022-10-16T07:06:02;1.50;;;1.07;;
19347;SDS011;9810;52.480;9.806;2022-10-16T07:08:31;1.73;;;1.23;;
19347;SDS011;9810;52.480;9.806;2022-10-16T07:10:59;3.03;;;1.07;;
19347;SDS011;9810;52.480;9.806;2022-10-16T07:13:27;1.47;;;1.13;;
19347;SDS011;9810;52.480;9.806;2022-10-16T07:15:54;1.40;;;1.03;;
19347;SDS011;9810;52.480;9.806;2022-10-16T07:18:23;6.47;;;1.00;;
19347;SDS011;9810;52.480;9.806;2022-10-16T07:20:52;3.93;;;0.90;;
19347;SDS011;9810;52.480;9.806;2022-10-16T07:23:19;0.97;;;0.80;;
19347;SDS011;9810;52.480;9.806;2022-10-16T07:25:52;4.27;;;0.77;;
19347;SDS011;9810;52.480;9.806;2022-10-16T07:28:20;2.90;;;0.70;;
19347;SDS011;9810;52.480;9.806;2022-10-16T07:30:47;1.20;;;0.70;;
19347;SDS011;9810;52.480;9.806;2022-10-16T07:33:15;2.67;;;1.00;;
19347;SDS011;9810;52.480;9.806;2022-10-16T07:35:51;2.83;;;0.70;;
19347;SDS011;9810;52.480;9.806;2022-10-16T07:38:20;0.67;;;0.67;;
19347;SDS011;9810;52.480;9.806;2022-10-16T07:40:47;1.43;;;0.60;;
19347;SDS011;9810;52.480;9.806;2022-10-16T07:43:21;2.22;;;0.50;;
19347;SDS011;9810;52.480;9.806;2022-10-16T07:45:48;1.00;;;0.60;;
19347;SDS011;9810;52.480;9.806;2022-10-16T07:48:16;0.33;;;0.30;;
19347;SDS011;9810;52.480;9.806;2022-10-16T07:50:44;0.60;;;0.60;;
19347;SDS011;9810;52.480;9.806;2022-10-16T07:53:14;0.80;;;0.70;;
19347;SDS011;9810;52.480;9.806;2022-10-16T07:55:41;1.60;;;0.53;;
19347;SDS011;9810;52.480;9.806;2022-10-16T07:58:09;3.80;;;0.83;;
19347;SDS011;9810;52.480;9.806;2022-10-16T08:00:37;3.90;;;0.70;;
19347;SDS011;9810;52.480;9.806;2022-10-16T08:03:04;1.42;;;0.45;;
19347;SDS011;9810;52.480;9.806;2022-10-16T08:05:32;1.30;;;0.50;;
19347;SDS011;9810;52.480;9.806;2022-10-16T08:08:00;0.70;;;0.50;;
19347;SDS011;9810;52.480;9.806;2022-10-16T08:10:29;0.40;;;0.40;;
19347;SDS011;9810;52.480;9.806;2022-10-16T08:12:56;1.20;;;0.40;;
19347;SDS011;9810;52.480;9.806;2022-10-16T08:15:24;1.07;;;0.60;;
19347;SDS011;9810;52.480;9.806;2022-10-16T08:17:55;1.33;;;0.70;;
19347;SDS011;9810;52.480;9.806;2022-10-16T08:20:23;1.17;;;0.60;;
19347;SDS011;9810;52.480;9.806;2022-10-16T08:22:50;0.67;;;0.50;;
19347;SDS011;9810;52.480;9.806;2022-10-16T08:25:17;1.70;;;0.50;;
19347;SDS011;9810;52.480;9.806;2022-10-16T08:27:46;0.33;;;0.33;;
19347;SDS011;9810;52.480;9.806;2022-10-16T08:30:13;1.80;;;0.83;;
19347;SDS011;9810;52.480;9.806;2022-10-16T08:32:41;0.80;;;0.40;;
19347;SDS011;9810;52.480;9.806;2022-10-16T08:35:08;0.50;;;0.40;;
19347;SDS011;9810;52.480;9.806;2022-10-16T08:37:36;0.50;;;0.30;;
19347;SDS011;9810;52.480;9.806;2022-10-16T08:40:04;2.53;;;0.40;;
19347;SDS011;9810;52.480;9.806;2022-10-16T08:42:46;0.53;;;0.40;;
19347;SDS011;9810;52.480;9.806;2022-10-16T08:45:44;0.85;;;0.32;;
19347;SDS011;9810;52.480;9.806;2022-10-16T08:48:25;3.20;;;0.30;;
19347;SDS011;9810;52.480;9.806;2022-10-16T08:50:56;0.63;;;0.43;;
19347;SDS011;9810;52.480;9.806;2022-10-16T08:53:24;1.40;;;0.50;;
19347;SDS011;9810;52.480;9.806;2022-10-16T08:55:56;0.60;;;0.40;;
19347;SDS011;9810;52.480;9.806;2022-10-16T08:58:27;0.75;;;0.30;;
19347;SDS011;9810;52.480;9.806;2022-10-16T09:00:56;2.08;;;0.60;;
19347;SDS011;9810;52.480;9.806;2022-10-16T09:03:31;0.52;;;0.50;;
19347;SDS011;9810;52.480;9.806;2022-10-16T09:06:25;0.73;;;0.35;;
19347;SDS011;9810;52.480;9.806;2022-10-16T09:09:14;1.52;;;0.32;;
19347;SDS011;9810;52.480;9.806;2022-10-16T09:12:03;2.05;;;0.40;;
19347;SDS011;9810;52.480;9.806;2022-10-16T09:14:43;0.93;;;0.35;;
19347;SDS011;9810;52.480;9.806;2022-10-16T09:17:23;0.50;;;0.50;;
19347;SDS011;9810;52.480;9.806;2022-10-16T09:19:58;1.17;;;0.40;;
19347;SDS011;9810;52.480;9.806;2022-10-16T09:22:39;2.95;;;0.57;;
19347;SDS011;9810;52.480;9.806;2022-10-16T09:25:10;1.42;;;0.35;;
19347;SDS011;9810;52.480;9.806;2022-10-16T09:27:39;0.40;;;0.30;;
19347;SDS011;9810;52.480;9.806;2022-10-16T09:30:12;2.15;;;0.65;;
19347;SDS011;9810;52.480;9.806;2022-10-16T09:32:41;1.25;;;0.47;;
19347;SDS011;9810;52.480;9.806;2022-10-16T09:35:11;0.70;;;0.28;;
19347;SDS011;9810;52.480;9.806;2022-10-16T09:37:42;0.30;;;0.30;;
19347;SDS011;9810;52.480;9.806;2022-10-16T09:40:12;1.23;;;0.40;;
19347;SDS011;9810;52.480;9.806;2022-10-16T09:42:40;0.43;;;0.43;;
19347;SDS011;9810;52.480;9.806;2022-10-16T09:45:20;0.60;;;0.50;;
19347;SDS011;9810;52.480;9.806;2022-10-16T09:47:49;1.17;;;0.95;;
19347;SDS011;9810;52.480;9.806;2022-10-16T09:50:21;0.30;;;0.30;;
19347;SDS011;9810;52.480;9.806;2022-10-16T09:53:02;0.65;;;0.30;;
19347;SDS011;9810;52.480;9.806;2022-10-16T09:55:30;4.88;;;0.52;;
19347;SDS011;9810;52.480;9.806;2022-10-16T09:57:58;0.90;;;0.35;;
19347;SDS011;9810;52.480;9.806;2022-10-16T10:00:26;0.43;;;0.43;;
19347;SDS011;9810;52.480;9.806;2022-10-16T10:02:55;0.57;;;0.47;;
19347;SDS011;9810;52.480;9.806;2022-10-16T10:05:23;1.80;;;0.63;;
19347;SDS011;9810;52.480;9.806;2022-10-16T10:07:56;1.63;;;0.50;;
19347;SDS011;9810;52.480;9.806;2022-10-16T10:10:25;0.70;;;0.35;;
19347;SDS011;9810;52.480;9.806;2022-10-16T10:12:54;1.60;;;0.50;;
19347;SDS011;9810;52.480;9.806;2022-10-16T10:15:22;1.55;;;0.38;;
19347;SDS011;9810;52.480;9.806;2022-10-16T10:17:53;1.52;;;0.40;;
19347;SDS011;9810;52.480;9.806;2022-10-16T10:20:23;0.52;;;0.30;;
19347;SDS011;9810;52.480;9.806;2022-10-16T10:22:53;0.50;;;0.50;;
19347;SDS011;9810;52.480;9.806;2022-10-16T10:28:08;3.20;;;0.57;;
19347;SDS011;9810;52.480;9.806;2022-10-16T10:30:49;1.98;;;0.70;;
19347;SDS011;9810;52.480;9.806;2022-10-16T10:33:29;2.43;;;0.50;;
19347;SDS011;9810;52.480;9.806;2022-10-16T10:38:52;2.90;;;0.30;;
19347;SDS011;9810;52.480;9.806;2022-10-16T10:44:24;0.93;;;0.30;;
19347;SDS011;9810;52.480;9.806;2022-10-16T10:47:05;2.30;;;0.60;;
19347;SDS011;9810;52.480;9.806;2022-10-16T10:49:42;4.95;;;0.50;;
19347;SDS011;9810;52.480;9.806;2022-10-16T10:52:26;1.60;;;0.40;;
19347;SDS011;9810;52.480;9.806;2022-10-16T10:55:09;0.80;;;0.33;;
19347;SDS011;9810;52.480;9.806;2022-10-16T10:57:45;3.27;;;0.60;;
19347;SDS011;9810;52.480;9.806;2022-10-16T11:00:27;4.95;;;0.93;;
19347;SDS011;9810;52.480;9.806;2022-10-16T11:03:02;5.75;;;0.73;;
19347;SDS011;9810;52.480;9.806;2022-10-16T11:05:42;2.63;;;0.40;;
19347;SDS011;9810;52.480;9.806;2022-10-16T11:08:13;0.68;;;0.30;;
19347;SDS011;9810;52.480;9.806;2022-10-16T11:10:49;3.92;;;1.00;;
19347;SDS011;9810;52.480;9.806;2022-10-16T11:13:30;2.75;;;0.85;;
19347;SDS011;9810;52.480;9.806;2022-10-16T11:16:01;2.90;;;0.70;;
19347;SDS011;9810;52.480;9.806;2022-10-16T11:18:38;1.95;;;0.38;;
19347;SDS011;9810;52.480;9.806;2022-10-16T11:21:14;2.55;;;0.60;;
19347;SDS011;9810;52.480;9.806;2022-10-16T11:23:46;1.98;;;0.40;;
19347;SDS011;9810;52.480;9.806;2022-10-16T11:26:18;1.73;;;0.30;;
19347;SDS011;9810;52.480;9.806;2022-10-16T11:28:50;1.47;;;0.40;;
19347;SDS011;9810;52.480;9.806;2022-10-16T11:31:22;1.33;;;0.43;;
19347;SDS011;9810;52.480;9.806;2022-10-16T11:33:58;2.23;;;0.43;;
19347;SDS011;9810;52.480;9.806;2022-10-16T11:36:33;1.03;;;0.53;;
19347;SDS011;9810;52.480;9.806;2022-10-16T11:39:08;2.10;;;0.60;;
19347;SDS011;9810;52.480;9.806;2022-10-16T11:41:45;2.27;;;0.47;;
19347;SDS011;9810;52.480;9.806;2022-10-16T11:44:18;2.63;;;0.57;;
19347;SDS011;9810;52.480;9.806;2022-10-16T11:46:58;1.30;;;0.40;;
19347;SDS011;9810;52.480;9.806;2022-10-16T11:49:34;1.87;;;0.40;;
19347;SDS011;9810;52.480;9.806;2022-10-16T11:52:07;6.80;;;0.50;;
19347;SDS011;9810;52.480;9.806;2022-10-16T11:54:44;1.27;;;0.63;;
19347;SDS011;9810;52.480;9.806;2022-10-16T11:57:16;3.37;;;0.50;;
19347;SDS011;9810;52.480;9.806;2022-10-16T11:59:47;1.43;;;0.50;;
19347;SDS011;9810;52.480;9.806;2022-10-16T12:02:26;2.50;;;0.37;;
19347;SDS011;9810;52.480;9.806;2022-10-16T12:05:07;3.00;;;0.50;;
19347;SDS011;9810;52.480;9.806;2022-10-16T12:07:50;1.30;;;0.50;;
19347;SDS011;9810;52.480;9.806;2022-10-16T12:10:25;2.60;;;0.50;;
19347;SDS011;9810;52.480;9.806;2022-10-16T12:12:54;2.93;;;0.60;;
19347;SDS011;9810;52.480;9.806;2022-10-16T12:15:23;5.40;;;0.50;;
19347;SDS011;9810;52.480;9.806;2022-10-16T12:17:52;4.07;;;0.67;;
19347;SDS011;9810;52.480;9.806;2022-10-16T12:20:21;1.73;;;0.70;;
19347;SDS011;9810;52.480;9.806;2022-10-16T12:22:57;0.73;;;0.30;;
19347;SDS011;9810;52.480;9.806;2022-10-16T12:25:28;0.30;;;0.30;;
19347;SDS011;9810;52.480;9.806;2022-10-16T12:27:58;1.33;;;0.40;;
19347;SDS011;9810;52.480;9.806;2022-10-16T12:30:28;2.03;;;0.30;;
19347;SDS011;9810;52.480;9.806;2022-10-16T12:32:57;1.50;;;0.37;;
19347;SDS011;9810;52.480;9.806;2022-10-16T12:35:27;0.50;;;0.40;;
19347;SDS011;9810;52.480;9.806;2022-10-16T12:38:05;1.40;;;0.43;;
19347;SDS011;9810;52.480;9.806;2022-10-16T12:40:35;3.23;;;0.50;;
19347;SDS011;9810;52.480;9.806;2022-10-16T12:43:11;2.33;;;0.90;;
19347;SDS011;9810;52.480;9.806;2022-10-16T12:45:39;0.30;;;0.30;;
19347;SDS011;9810;52.480;9.806;2022-10-16T12:48:18;2.00;;;0.60;;
19347;SDS011;9810;52.480;9.806;2022-10-16T12:50:46;2.10;;;0.40;;
19347;SDS011;9810;52.480;9.806;2022-10-16T12:53:19;2.33;;;0.80;;
19347;SDS011;9810;52.480;9.806;2022-10-16T12:55:51;1.57;;;0.60;;
19347;SDS011;9810;52.480;9.806;2022-10-16T12:58:28;1.40;;;0.40;;
19347;SDS011;9810;52.480;9.806;2022-10-16T13:01:21;1.10;;;0.40;;
19347;SDS011;9810;52.480;9.806;2022-10-16T13:04:00;2.60;;;0.43;;
19347;SDS011;9810;52.480;9.806;2022-10-16T13:06:42;1.53;;;0.50;;
19347;SDS011;9810;52.480;9.806;2022-10-16T13:09:22;2.07;;;0.40;;
19347;SDS011;9810;52.480;9.806;2022-10-16T13:12:12;4.83;;;0.73;;
19347;SDS011;9810;52.480;9.806;2022-10-16T13:14:59;1.33;;;0.52;;
19347;SDS011;9810;52.480;9.806;2022-10-16T13:17:37;0.47;;;0.30;;
19347;SDS011;9810;52.480;9.806;2022-10-16T13:20:15;1.73;;;0.60;;
19347;SDS011;9810;52.480;9.806;2022-10-16T13:22:49;2.00;;;0.60;;
19347;SDS011;9810;52.480;9.806;2022-10-16T13:25:26;1.07;;;0.60;;
19347;SDS011;9810;52.480;9.806;2022-10-16T13:28:03;2.67;;;0.60;;
19347;SDS011;9810;52.480;9.806;2022-10-16T13:30:32;1.67;;;0.70;;
19347;SDS011;9810;52.480;9.806;2022-10-16T13:33:06;2.00;;;0.50;;
19347;SDS011;9810;52.480;9.806;2022-10-16T13:35:46;5.07;;;0.70;;
19347;SDS011;9810;52.480;9.806;2022-10-16T13:38:15;2.00;;;0.50;;
19347;SDS011;9810;52.480;9.806;2022-10-16T13:40:49;1.27;;;0.40;;
19347;SDS011;9810;52.480;9.806;2022-10-16T13:43:18;0.50;;;0.33;;
19347;SDS011;9810;52.480;9.806;2022-10-16T13:45:58;3.07;;;0.57;;
19347;SDS011;9810;52.480;9.806;2022-10-16T13:48:28;5.93;;;0.80;;
19347;SDS011;9810;52.480;9.806;2022-10-16T13:50:59;1.97;;;0.50;;
19347;SDS011;9810;52.480;9.806;2022-10-16T13:53:27;2.43;;;0.40;;
19347;SDS011;9810;52.480;9.806;2022-10-16T13:55:59;1.67;;;0.30;;
19347;SDS011;9810;52.480;9.806;2022-10-16T13:58:29;2.17;;;0.97;;
19347;SDS011;9810;52.480;9.806;2022-10-16T14:00:56;2.80;;;0.57;;
19347;SDS011;9810;52.480;9.806;2022-10-16T14:03:26;1.07;;;0.40;;
19347;SDS011;9810;52.480;9.806;2022-10-16T14:05:55;3.30;;;0.40;;
19347;SDS011;9810;52.480;9.806;2022-10-16T14:08:25;2.20;;;0.40;;
19347;SDS011;9810;52.480;9.806;2022-10-16T14:10:54;0.93;;;0.47;;
19347;SDS011;9810;52.480;9.806;2022-10-16T14:13:27;1.57;;;0.50;;
19347;SDS011;9810;52.480;9.806;2022-10-16T14:15:57;0.40;;;0.37;;
19347;SDS011;9810;52.480;9.806;2022-10-16T14:18:27;1.50;;;0.40;;
19347;SDS011;9810;52.480;9.806;2022-10-16T14:20:55;1.90;;;0.37;;
19347;SDS011;9810;52.480;9.806;2022-10-16T14:23:30;3.47;;;1.57;;
19347;SDS011;9810;52.480;9.806;2022-10-16T14:26:14;0.50;;;0.40;;
19347;SDS011;9810;52.480;9.806;2022-10-16T14:28:45;2.23;;;0.53;;
19347;SDS011;9810;52.480;9.806;2022-10-16T14:31:27;0.97;;;0.50;;
19347;SDS011;9810;52.480;9.806;2022-10-16T14:33:56;0.73;;;0.40;;
19347;SDS011;9810;52.480;9.806;2022-10-16T14:36:23;1.60;;;0.63;;
19347;SDS011;9810;52.480;9.806;2022-10-16T14:39:01;2.33;;;0.60;;
19347;SDS011;9810;52.480;9.806;2022-10-16T14:41:30;2.97;;;0.43;;
19347;SDS011;9810;52.480;9.806;2022-10-16T14:44:02;2.00;;;0.60;;
19347;SDS011;9810;52.480;9.806;2022-10-16T14:46:32;3.17;;;0.60;;
19347;SDS011;9810;52.480;9.806;2022-10-16T14:49:02;1.23;;;0.70;;
19347;SDS011;9810;52.480;9.806;2022-10-16T14:51:38;2.00;;;0.40;;
19347;SDS011;9810;52.480;9.806;2022-10-16T14:54:07;3.30;;;0.60;;
19347;SDS011;9810;52.480;9.806;2022-10-16T14:56:40;1.13;;;0.30;;
19347;SDS011;9810;52.480;9.806;2022-10-16T14:59:13;0.60;;;0.57;;
19347;SDS011;9810;52.480;9.806;2022-10-16T15:01:43;1.30;;;0.40;;
19347;SDS011;9810;52.480;9.806;2022-10-16T15:04:11;4.07;;;0.80;;
19347;SDS011;9810;52.480;9.806;2022-10-16T15:06:39;2.23;;;0.40;;
19347;SDS011;9810;52.480;9.806;2022-10-16T15:09:06;2.07;;;0.40;;
19347;SDS011;9810;52.480;9.806;2022-10-16T15:11:33;2.03;;;0.40;;
19347;SDS011;9810;52.480;9.806;2022-10-16T15:14:01;1.43;;;0.50;;
19347;SDS011;9810;52.480;9.806;2022-10-16T15:16:30;5.13;;;0.60;;
19347;SDS011;9810;52.480;9.806;2022-10-16T15:18:58;3.53;;;0.60;;
19347;SDS011;9810;52.480;9.806;2022-10-16T15:21:26;2.47;;;0.43;;
19347;SDS011;9810;52.480;9.806;2022-10-16T15:23:55;1.20;;;0.47;;
19347;SDS011;9810;52.480;9.806;2022-10-16T15:26:23;1.13;;;0.40;;
19347;SDS011;9810;52.480;9.806;2022-10-16T15:28:50;0.90;;;0.40;;
19347;SDS011;9810;52.480;9.806;2022-10-16T15:31:18;2.37;;;0.60;;